Time;durP1;ratioP1;P1;durP2;ratioP2;P2;SDS_P1;SDS_P2;PMS_P1;PMS_P2;Temp;Humidity;BMP_temperature;BMP_pressure;BME280_temperature;BME280_humidity;BME280_pressure;Samples;Min_cycle;Max_cycle;Signal;HPM_P1;HPM_P2
2024/03/14 00:00:03;;;;;;;21.33;12.70;;;9.70;99.90;;;;;;6308278;22;20038;-77
2024/03/14 00:02:29;;;;;;;16.60;11.67;;;9.70;99.90;;;;;;6308130;22;20437;-72
2024/03/14 00:04:56;;;;;;;20.13;11.03;;;9.60;99.90;;;;;;6308812;22;20085;-72
2024/03/14 00:07:22;;;;;;;23.57;11.33;;;9.60;99.90;;;;;;6307932;22;20078;-74
2024/03/14 00:09:48;;;;;;;18.77;11.40;;;9.60;99.90;;;;;;6307807;22;20025;-76
2024/03/14 00:12:16;;;;;;;18.40;11.30;;;9.50;99.90;;;;;;6308399;22;20026;-75
2024/03/14 00:14:50;;;;;;;19.17;10.67;;;9.60;99.90;;;;;;6308173;22;20049;-76
2024/03/14 00:17:19;;;;;;;25.20;11.80;;;9.60;99.90;;;;;;6307889;22;20007;-77
2024/03/14 00:19:48;;;;;;;22.53;11.37;;;9.50;99.90;;;;;;6307811;22;20441;-76
2024/03/14 00:22:14;;;;;;;26.53;11.10;;;9.50;99.90;;;;;;6308310;22;20030;-75
2024/03/14 00:24:41;;;;;;;24.80;11.10;;;9.50;99.90;;;;;;6308334;22;20041;-76
2024/03/14 00:27:07;;;;;;;19.53;10.87;;;9.50;99.90;;;;;;6308781;22;20009;-77
2024/03/14 00:29:34;;;;;;;19.60;10.43;;;9.40;99.90;;;;;;6308354;22;20087;-72
2024/03/14 00:35:51;;;;;;;19.83;9.40;;;9.40;99.90;;;;;;6124163;23;20356;-72
2024/03/14 00:48:37;;;;;;;25.57;10.40;;;9.20;99.90;;;;;;6307862;22;20065;-76
2024/03/14 00:51:14;;;;;;;25.27;10.27;;;9.10;99.90;;;;;;6307117;22;20314;-73
2024/03/14 00:53:43;;;;;;;34.17;10.70;;;9.10;99.90;;;;;;6307874;22;20038;-74
2024/03/14 00:57:02;;;;;;;18.50;7.93;;;9.00;99.90;;;;;;6307929;22;20015;-75
2024/03/14 00:59:29;;;;;;;14.53;8.63;;;9.00;99.90;;;;;;6293778;22;19999;-74
2024/03/14 01:01:56;;;;;;;16.27;9.47;;;9.00;99.90;;;;;;6307720;22;20033;-74
2024/03/14 01:04:22;;;;;;;14.77;8.83;;;8.90;99.90;;;;;;6307803;22;20364;-71
2024/03/14 01:06:49;;;;;;;14.60;9.03;;;8.90;99.90;;;;;;6307652;22;20010;-73
2024/03/14 01:09:16;;;;;;;14.60;9.00;;;8.90;99.90;;;;;;6307656;22;20321;-75
2024/03/14 01:11:43;;;;;;;15.60;9.27;;;8.90;99.90;;;;;;6307500;22;20003;-74
2024/03/14 01:14:13;;;;;;;16.23;9.80;;;8.90;99.90;;;;;;6279715;22;20054;-74
2024/03/14 01:16:41;;;;;;;16.63;9.67;;;8.80;99.90;;;;;;6307722;22;20007;-74
2024/03/14 01:19:07;;;;;;;17.10;9.57;;;8.80;99.90;;;;;;6307449;22;20007;-73
2024/03/14 01:21:38;;;;;;;15.70;9.90;;;8.80;99.90;;;;;;6307702;22;20053;-75
2024/03/14 01:24:04;;;;;;;21.87;11.53;;;8.80;99.90;;;;;;6307274;22;20451;-72
2024/03/14 01:26:32;;;;;;;19.63;10.37;;;8.80;99.90;;;;;;6307520;22;20019;-73
2024/03/14 01:28:59;;;;;;;17.27;10.80;;;8.80;99.90;;;;;;6307140;22;20003;-69
2024/03/14 01:31:25;;;;;;;16.43;9.90;;;8.80;99.90;;;;;;6307351;22;20330;-74
2024/03/14 01:33:51;;;;;;;16.53;10.00;;;8.80;99.90;;;;;;6307363;22;20003;-73
2024/03/14 01:36:17;;;;;;;25.90;10.43;;;8.80;99.90;;;;;;6307168;22;20007;-76
2024/03/14 01:38:43;;;;;;;20.00;10.33;;;8.70;99.90;;;;;;6279924;22;20033;-70
2024/03/14 01:41:19;;;;;;;19.43;9.13;;;8.70;99.90;;;;;;6307221;22;20003;-69
2024/03/14 01:44:04;;;;;;;21.77;9.60;;;8.70;99.90;;;;;;6307377;22;20003;-70
2024/03/14 01:46:31;;;;;;;24.87;9.67;;;8.70;99.90;;;;;;6307371;22;20002;-70
2024/03/14 01:48:58;;;;;;;17.47;7.97;;;8.60;99.90;;;;;;6307334;22;20060;-69
2024/03/14 01:51:25;;;;;;;17.90;8.47;;;8.60;99.90;;;;;;6306695;22;19995;-70
2024/03/14 01:53:52;;;;;;;13.60;7.87;;;8.50;99.90;;;;;;6279486;22;19999;-70
2024/03/14 01:56:21;;;;;;;12.13;8.13;;;8.50;99.90;;;;;;6309060;22;20505;-71
2024/03/14 01:58:53;;;;;;;16.47;8.40;;;8.50;99.90;;;;;;6310329;22;20045;-72
2024/03/14 02:01:21;;;;;;;11.93;8.13;;;8.50;99.90;;;;;;6305742;22;20353;-73
2024/03/14 02:03:56;;;;;;;18.97;8.73;;;8.50;99.90;;;;;;6304584;22;20003;-76
2024/03/14 02:06:39;;;;;;;15.87;8.33;;;8.50;99.90;;;;;;6307585;22;20030;-78
2024/03/14 02:09:07;;;;;;;14.10;9.27;;;8.50;99.90;;;;;;6307998;22;20003;-73
2024/03/14 02:12:24;;;;;;;14.73;8.43;;;8.40;99.90;;;;;;6280722;22;20003;-74
2024/03/14 02:15:01;;;;;;;14.77;8.27;;;8.40;99.90;;;;;;6279496;22;20037;-76
2024/03/14 02:17:48;;;;;;;15.83;8.17;;;8.40;99.90;;;;;;6252434;22;20372;-75
2024/03/14 02:20:42;;;;;;;19.20;8.33;;;8.40;99.90;;;;;;6305963;22;20031;-73
2024/03/14 02:23:14;;;;;;;17.00;8.37;;;8.40;99.90;;;;;;6304315;22;20075;-72
2024/03/14 02:25:46;;;;;;;21.05;8.80;;;8.40;99.90;;;;;;6307217;22;19999;-75
2024/03/14 02:38:33;;;;;;;9.90;6.05;;;8.30;99.90;;;;;;6007699;23;20522;-75
2024/03/14 02:40:59;;;;;;;12.73;6.40;;;8.40;99.90;;;;;;6106033;23;20370;-73
2024/03/14 02:43:25;;;;;;;11.07;6.77;;;8.30;99.90;;;;;;6287444;22;20347;-69
2024/03/14 02:45:51;;;;;;;11.67;6.77;;;8.40;99.90;;;;;;6306830;22;20003;-74
2024/03/14 02:48:17;;;;;;;9.77;6.40;;;8.40;99.90;;;;;;6306694;22;20464;-75
2024/03/14 02:50:44;;;;;;;12.10;7.00;;;8.30;99.90;;;;;;6306653;22;20007;-74
2024/03/14 02:53:13;;;;;;;13.47;7.50;;;8.30;99.90;;;;;;6279228;22;20399;-74
2024/03/14 02:55:39;;;;;;;12.30;6.50;;;8.30;99.90;;;;;;6306772;22;20372;-73
2024/03/14 02:58:06;;;;;;;11.70;7.07;;;8.30;99.90;;;;;;6306849;22;20341;-76
2024/03/14 03:00:32;;;;;;;10.40;6.40;;;8.30;99.90;;;;;;6306891;22;19999;-72
2024/03/14 03:02:58;;;;;;;8.63;5.60;;;8.30;99.90;;;;;;6306753;22;20004;-73
2024/03/14 03:05:24;;;;;;;16.83;6.57;;;8.30;99.90;;;;;;6306709;22;20481;-74
2024/03/14 03:07:50;;;;;;;12.67;6.97;;;8.30;99.90;;;;;;6306607;22;20027;-74
2024/03/14 03:10:16;;;;;;;12.43;5.97;;;8.20;99.90;;;;;;6306275;22;19995;-74
2024/03/14 03:12:42;;;;;;;9.47;5.63;;;8.20;99.90;;;;;;6306946;22;20007;-73
2024/03/14 03:15:08;;;;;;;8.57;5.73;;;8.10;99.90;;;;;;6306488;22;19999;-71
2024/03/14 03:17:34;;;;;;;9.20;5.33;;;8.10;99.90;;;;;;6306375;22;20025;-74
2024/03/14 03:20:09;;;;;;;10.67;5.70;;;8.00;99.90;;;;;;6307186;22;20372;-73
2024/03/14 03:23:04;;;;;;;9.63;5.47;;;8.00;99.90;;;;;;6306344;22;20030;-73
2024/03/14 03:25:20;;;;;;;8.67;5.33;;;8.00;99.90;;;;;;6306214;22;20004;-74
2024/03/14 03:27:46;;;;;;;11.10;5.67;;;7.90;99.90;;;;;;6308749;22;20010;-72
2024/03/14 03:30:12;;;;;;;8.67;4.60;;;7.90;99.90;;;;;;6308651;22;20099;-72
2024/03/14 03:32:38;;;;;;;6.67;5.10;;;8.00;99.90;;;;;;6308074;22;20000;-77
2024/03/14 03:35:04;;;;;;;11.20;5.00;;;8.00;99.90;;;;;;6255626;22;20007;-74
2024/03/14 03:37:29;;;;;;;10.57;5.00;;;7.90;99.90;;;;;;6308514;22;20498;-73
2024/03/14 03:39:56;;;;;;;7.57;5.20;;;8.00;99.90;;;;;;6308349;22;19999;-75
2024/03/14 03:42:22;;;;;;;9.37;5.17;;;7.90;99.90;;;;;;6308436;22;20004;-74
2024/03/14 03:44:49;;;;;;;11.70;6.37;;;7.90;99.90;;;;;;6308876;22;20011;-74
2024/03/14 03:47:18;;;;;;;16.07;6.27;;;7.90;99.90;;;;;;6309434;22;20010;-73
2024/03/14 03:49:46;;;;;;;12.40;6.17;;;8.00;99.90;;;;;;6309038;22;20332;-72
2024/03/14 03:52:15;;;;;;;9.77;6.00;;;8.00;99.90;;;;;;6282065;22;20035;-75
2024/03/14 03:54:46;;;;;;;12.17;5.97;;;7.90;99.90;;;;;;6308935;22;20000;-74
2024/03/14 04:01:06;;;;;;;15.27;6.27;;;7.80;99.90;;;;;;6308861;22;20010;-71
2024/03/14 04:04:01;;;;;;;8.90;6.30;;;7.80;99.90;;;;;;6307960;22;20014;-73
2024/03/14 04:10:15;;;;;;;12.70;7.43;;;7.70;99.90;;;;;;6095144;23;20093;-72
2024/03/14 04:16:24;;;;;;;13.43;6.77;;;7.60;99.90;;;;;;6009049;23;20031;-76
2024/03/14 04:18:53;;;;;;;15.13;6.90;;;7.50;99.90;;;;;;6009000;23;20015;-74
2024/03/14 04:21:30;;;;;;;17.70;6.23;;;7.50;99.90;;;;;;6082756;23;20005;-74
2024/03/14 04:23:56;;;;;;;13.40;7.17;;;7.50;99.90;;;;;;6153598;23;20009;-73
2024/03/14 04:26:22;;;;;;;16.17;7.03;;;7.50;99.90;;;;;;6178852;22;20008;-72
2024/03/14 04:28:49;;;;;;;12.77;7.10;;;7.50;99.90;;;;;;6277107;22;20033;-71
2024/03/14 04:31:17;;;;;;;18.47;6.80;;;7.40;99.90;;;;;;6277881;22;20018;-75
2024/03/14 04:33:43;;;;;;;22.47;6.60;;;7.40;99.90;;;;;;6277294;22;20343;-74
2024/03/14 04:36:09;;;;;;;14.37;6.90;;;7.40;99.90;;;;;;6276982;22;20000;-72
2024/03/14 04:38:37;;;;;;;11.97;6.90;;;7.30;99.90;;;;;;6276389;22;20000;-77
2024/03/14 04:41:14;;;;;;;14.10;6.77;;;7.30;99.90;;;;;;6249518;22;20004;-71
2024/03/14 04:43:40;;;;;;;17.13;7.30;;;7.40;99.90;;;;;;6277400;22;20087;-73
2024/03/14 04:46:06;;;;;;;11.30;6.17;;;7.30;99.90;;;;;;6276690;22;19999;-74
2024/03/14 04:48:32;;;;;;;11.03;6.43;;;7.40;99.90;;;;;;6276602;22;20008;-73
2024/03/14 04:50:59;;;;;;;9.93;6.30;;;7.40;99.90;;;;;;6276978;22;20014;-75
2024/03/14 04:53:26;;;;;;;9.63;6.00;;;7.40;99.90;;;;;;6276715;22;19999;-73
2024/03/14 04:55:54;;;;;;;11.80;6.20;;;7.40;99.90;;;;;;6276504;22;20418;-71
2024/03/14 04:58:20;;;;;;;13.90;6.57;;;7.40;99.90;;;;;;6277043;22;20004;-70
2024/03/14 05:00:47;;;;;;;11.63;6.60;;;7.40;99.90;;;;;;6276312;22;20006;-72
2024/03/14 05:03:13;;;;;;;25.00;6.87;;;7.40;99.90;;;;;;6277167;22;20392;-71
2024/03/14 05:05:40;;;;;;;29.63;7.97;;;7.40;99.90;;;;;;6249765;22;20003;-69
2024/03/14 05:08:06;;;;;;;13.87;6.17;;;7.30;99.90;;;;;;6277243;22;20007;-69
2024/03/14 05:10:33;;;;;;;14.87;6.07;;;7.30;99.90;;;;;;6276615;22;20008;-69
2024/03/14 05:12:59;;;;;;;17.23;5.97;;;7.30;99.90;;;;;;6276474;22;20003;-71
2024/03/14 05:15:24;;;;;;;14.30;5.40;;;7.30;99.90;;;;;;6276501;22;20007;-70
2024/03/14 05:17:51;;;;;;;10.57;5.53;;;7.30;99.90;;;;;;6284353;22;20011;-70
2024/03/14 05:20:17;;;;;;;24.53;5.40;;;7.30;99.90;;;;;;6307106;22;20007;-71
2024/03/14 05:22:44;;;;;;;15.83;4.97;;;7.30;99.90;;;;;;6306979;22;20007;-70
2024/03/14 05:25:11;;;;;;;16.00;5.30;;;7.30;99.90;;;;;;6307499;22;20181;-71
2024/03/14 05:27:37;;;;;;;9.83;4.43;;;7.30;99.90;;;;;;6280325;22;20342;-72
2024/03/14 05:30:03;;;;;;;11.17;4.37;;;7.30;99.90;;;;;;6307781;22;20117;-73
2024/03/14 05:32:29;;;;;;;12.83;4.37;;;7.30;99.90;;;;;;6307900;22;20007;-75
2024/03/14 05:34:55;;;;;;;12.23;4.57;;;7.30;99.90;;;;;;6307939;22;20007;-74
2024/03/14 05:37:24;;;;;;;7.97;4.13;;;7.30;99.90;;;;;;6308150;22;20337;-75
2024/03/14 05:43:34;;;;;;;10.83;4.83;;;7.30;99.90;;;;;;6117739;23;20020;-71
2024/03/14 05:56:53;;;;;;;22.65;4.50;;;7.20;99.90;;;;;;5938216;24;20021;-76
2024/03/14 05:59:43;;;;;;;16.93;5.23;;;7.30;99.90;;;;;;5924767;24;20005;-75
2024/03/14 06:06:24;;;;;;;12.67;5.87;;;7.30;99.90;;;;;;6036858;23;20039;-71
2024/03/14 06:08:28;;;;;;;16.03;5.87;;;7.30;99.90;;;;;;6022246;23;20090;-71
2024/03/14 06:10:55;;;;;;;14.47;5.80;;;7.30;99.90;;;;;;6013019;23;20383;-71
2024/03/14 06:13:22;;;;;;;22.10;5.67;;;7.30;99.90;;;;;;6193224;22;20086;-73
2024/03/14 06:15:50;;;;;;;10.70;5.43;;;7.40;99.90;;;;;;6307119;22;20006;-75
2024/03/14 06:18:19;;;;;;;13.97;5.40;;;7.40;99.90;;;;;;6304494;22;20015;-75
2024/03/14 06:20:45;;;;;;;18.30;5.60;;;7.40;99.90;;;;;;6305509;22;20312;-75
2024/03/14 06:23:11;;;;;;;11.77;5.13;;;7.40;99.90;;;;;;6305823;22;19999;-76
2024/03/14 06:25:37;;;;;;;14.13;5.10;;;7.50;99.90;;;;;;6306072;22;19995;-75
2024/03/14 06:28:03;;;;;;;23.23;5.07;;;7.50;99.90;;;;;;6306226;22;20003;-77
2024/03/14 06:30:29;;;;;;;19.47;5.07;;;7.60;99.90;;;;;;6278690;22;20072;-75
2024/03/14 06:32:56;;;;;;;20.83;6.07;;;7.70;99.90;;;;;;6306579;22;20366;-74
2024/03/14 06:35:22;;;;;;;14.00;6.20;;;7.70;99.90;;;;;;6305347;22;20426;-75
2024/03/14 06:37:53;;;;;;;28.90;6.63;;;7.80;99.90;;;;;;6305845;22;20007;-74
2024/03/14 06:40:21;;;;;;;18.57;6.10;;;7.90;99.90;;;;;;6305853;22;20005;-73
2024/03/14 06:42:49;;;;;;;15.47;5.40;;;7.90;99.90;;;;;;6305793;22;20481;-72
2024/03/14 06:45:19;;;;;;;13.43;5.77;;;8.00;99.90;;;;;;6305995;22;19996;-72
2024/03/14 06:47:45;;;;;;;8.37;5.37;;;8.10;99.90;;;;;;6306462;22;20068;-73
2024/03/14 06:50:12;;;;;;;11.83;5.40;;;8.10;99.90;;;;;;6306281;22;20074;-73
2024/03/14 06:52:38;;;;;;;12.90;5.37;;;8.30;99.90;;;;;;6306907;22;20038;-72
2024/03/14 06:55:07;;;;;;;24.40;6.13;;;8.40;99.90;;;;;;6306180;22;20003;-75
2024/03/14 06:57:34;;;;;;;14.10;5.87;;;8.50;99.90;;;;;;6279048;22;20011;-71
2024/03/14 07:00:09;;;;;;;16.27;5.37;;;8.60;99.90;;;;;;6306704;22;19999;-76
2024/03/14 07:02:38;;;;;;;14.27;5.47;;;8.70;99.90;;;;;;6308552;22;19999;-76
2024/03/14 07:05:04;;;;;;;11.63;5.30;;;8.70;99.90;;;;;;6308646;22;19999;-76
2024/03/14 07:07:30;;;;;;;27.33;7.73;;;8.80;99.90;;;;;;6307937;22;20039;-73
2024/03/14 07:09:56;;;;;;;22.70;6.70;;;8.80;99.90;;;;;;6304150;22;20003;-75
2024/03/14 07:12:22;;;;;;;35.67;7.00;;;8.90;99.90;;;;;;6305428;22;20041;-75
2024/03/14 07:14:47;;;;;;;33.53;7.37;;;9.00;99.90;;;;;;6306913;22;20000;-76
2024/03/14 07:17:13;;;;;;;38.87;6.80;;;9.00;99.90;;;;;;6309110;22;20046;-79
2024/03/14 07:19:39;;;;;;;30.43;6.00;;;9.10;99.90;;;;;;6281704;22;20065;-76
2024/03/14 07:22:25;;;;;;;33.77;6.57;;;9.20;99.90;;;;;;6281609;22;20007;-72
2024/03/14 07:25:00;;;;;;;31.10;7.43;;;9.30;99.90;;;;;;6308543;22;20082;-75
2024/03/14 07:31:31;;;;;;;24.70;6.37;;;9.50;99.90;;;;;;6150664;23;20024;-75
2024/03/14 07:34:27;;;;;;;16.23;6.63;;;9.60;99.90;;;;;;6131654;23;20006;-75
2024/03/14 07:37:28;;;;;;;25.13;5.57;;;9.70;99.90;;;;;;6205516;22;20063;-74
2024/03/14 07:43:16;;;;;;;14.60;6.63;;;9.80;99.90;;;;;;6213699;23;20024;-73
2024/03/14 07:50:09;;;;;;;17.30;6.30;;;10.00;99.90;;;;;;6293930;22;20015;-80
2024/03/14 07:52:36;;;;;;;15.87;5.57;;;10.10;99.90;;;;;;6272007;22;20003;-74
2024/03/14 07:55:06;;;;;;;20.57;5.90;;;10.10;99.90;;;;;;6309013;22;20423;-75
2024/03/14 07:57:35;;;;;;;17.70;5.10;;;10.20;99.90;;;;;;6308545;22;20375;-75
2024/03/14 08:00:04;;;;;;;9.97;4.53;;;10.30;99.90;;;;;;6281714;22;20372;-75
2024/03/14 08:02:33;;;;;;;18.03;5.07;;;10.30;99.90;;;;;;6308881;22;20380;-77
2024/03/14 08:05:02;;;;;;;14.00;5.17;;;10.40;99.90;;;;;;6280569;22;20420;-74
2024/03/14 08:07:28;;;;;;;16.83;5.13;;;10.40;99.90;;;;;;6307021;22;20038;-74
2024/03/14 08:09:57;;;;;;;16.07;4.97;;;10.50;99.90;;;;;;6308075;22;20318;-75
2024/03/14 08:12:24;;;;;;;16.80;6.50;;;10.60;99.90;;;;;;6307370;22;20018;-76
2024/03/14 08:14:58;;;;;;;16.23;5.63;;;10.60;99.90;;;;;;6308496;22;20429;-75
2024/03/14 08:17:26;;;;;;;11.23;6.03;;;10.70;99.90;;;;;;6307947;22;20061;-74
2024/03/14 08:19:56;;;;;;;11.00;5.68;;;10.80;99.90;;;;;;6308247;22;20442;-75
2024/03/14 08:22:23;;;;;;;19.52;7.65;;;10.80;99.90;;;;;;6308317;22;20057;-73
2024/03/14 08:24:52;;;;;;;22.45;6.20;;;10.90;99.90;;;;;;6308249;22;20076;-75
2024/03/14 08:27:19;;;;;;;19.05;5.78;;;11.00;99.90;;;;;;6308012;22;20082;-75
2024/03/14 08:29:47;;;;;;;15.05;5.57;;;11.00;99.90;;;;;;6306367;22;20003;-74
2024/03/14 08:32:15;;;;;;;10.23;5.57;;;11.10;99.90;;;;;;6307243;22;20003;-72
2024/03/14 08:34:41;;;;;;;15.20;6.05;;;11.20;99.90;;;;;;6306838;22;19999;-70
2024/03/14 08:37:07;;;;;;;23.80;5.90;;;11.20;99.90;;;;;;6307012;22;20018;-70
2024/03/14 08:39:33;;;;;;;11.07;5.00;;;11.30;99.90;;;;;;6306975;22;19999;-69
2024/03/14 08:41:59;;;;;;;9.93;5.60;;;11.40;99.90;;;;;;6307067;22;20029;-70
2024/03/14 08:44:28;;;;;;;14.63;5.43;;;11.40;99.90;;;;;;6306927;22;20003;-72
2024/03/14 08:46:53;;;;;;;10.68;5.63;;;11.50;99.90;;;;;;6307257;22;20006;-71
2024/03/14 08:49:20;;;;;;;10.23;5.47;;;11.60;99.90;;;;;;6307358;22;19996;-70
2024/03/14 08:51:46;;;;;;;15.05;5.65;;;11.60;99.90;;;;;;6307813;22;20011;-69
2024/03/14 08:54:33;;;;;;;9.80;4.95;;;11.70;99.90;;;;;;6307705;22;19999;-75
2024/03/14 08:56:59;;;;;;;10.93;4.78;;;11.80;99.90;;;;;;6308863;22;20381;-75
2024/03/14 08:59:27;;;;;;;7.25;4.97;;;11.80;99.90;;;;;;6308691;22;20348;-75
2024/03/14 09:01:52;;;;;;;9.88;4.55;;;11.90;99.90;;;;;;6308536;22;20299;-75
2024/03/14 09:04:27;;;;;;;7.82;4.60;;;12.00;99.90;;;;;;6308661;22;20021;-76
2024/03/14 09:06:57;;;;;;;10.63;4.47;;;12.00;99.90;;;;;;6308394;22;20003;-75
2024/03/14 09:10:25;;;;;;;9.38;4.40;;;12.10;99.90;;;;;;6307933;22;20121;-74
2024/03/14 09:34:00;;;;;;;;;;;;;;;;;;;;;
2024/03/14 09:36:26;;;;;;;14.55;4.00;;;12.80;99.90;;;;;;6069044;23;20105;-76
2024/03/14 09:38:53;;;;;;;8.25;3.63;;;12.80;99.90;;;;;;6183374;23;20051;-76
2024/03/14 09:41:19;;;;;;;14.65;3.78;;;12.90;99.90;;;;;;6294315;22;20003;-75
2024/03/14 09:43:46;;;;;;;9.93;4.03;;;13.00;99.90;;;;;;6307469;22;20009;-75
2024/03/14 09:46:15;;;;;;;9.48;4.10;;;13.00;99.90;;;;;;6307415;22;20003;-76
2024/03/14 09:48:41;;;;;;;8.43;4.30;;;13.10;99.90;;;;;;6279885;22;19999;-75
2024/03/14 09:51:09;;;;;;;8.98;3.92;;;13.20;99.90;;;;;;6280265;22;20003;-75
2024/03/14 09:53:37;;;;;;;6.80;3.70;;;13.30;99.90;;;;;;6280242;22;20318;-74
2024/03/14 09:56:04;;;;;;;9.35;3.20;;;13.40;99.90;;;;;;6280548;22;20003;-74
2024/03/14 09:58:29;;;;;;;8.85;4.10;;;13.50;98.80;;;;;;6306836;22;20007;-76
2024/03/14 10:00:56;;;;;;;8.40;4.15;;;13.50;98.70;;;;;;6307757;22;20078;-75
2024/03/14 10:03:22;;;;;;;7.97;5.03;;;13.50;97.70;;;;;;6280052;22;20434;-75
2024/03/14 10:05:52;;;;;;;9.73;5.13;;;13.60;97.70;;;;;;6307381;22;20002;-76
2024/03/14 10:08:21;;;;;;;12.00;5.75;;;13.70;98.10;;;;;;6279860;22;20435;-76
2024/03/14 10:10:46;;;;;;;12.95;6.05;;;13.70;97.90;;;;;;6306906;22;20007;-75
2024/03/14 10:13:24;;;;;;;11.93;6.18;;;13.80;97.70;;;;;;6307236;22;20003;-76
2024/03/14 10:15:50;;;;;;;13.73;7.38;;;13.80;97.40;;;;;;6307236;22;20425;-75
2024/03/14 10:18:18;;;;;;;11.88;7.15;;;13.80;97.60;;;;;;6307020;22;20011;-74
2024/03/14 10:20:44;;;;;;;11.52;6.38;;;13.90;97.50;;;;;;6306778;22;20367;-75
2024/03/14 10:23:09;;;;;;;15.50;8.90;;;14.00;97.20;;;;;;6306956;22;20034;-75
2024/03/14 10:25:39;;;;;;;12.23;8.20;;;14.10;97.60;;;;;;6307186;22;20002;-75
2024/03/14 10:28:09;;;;;;;17.55;7.82;;;14.20;98.20;;;;;;6279321;22;20056;-75
2024/03/14 10:30:36;;;;;;;15.95;7.95;;;14.20;97.90;;;;;;6306502;22;20007;-75
2024/03/14 10:33:02;;;;;;;13.88;9.57;;;14.30;97.70;;;;;;6306983;22;20049;-75
2024/03/14 10:35:30;;;;;;;19.42;10.18;;;14.40;96.40;;;;;;6306772;22;20000;-77
2024/03/14 10:37:59;;;;;;;16.48;9.32;;;14.40;97.30;;;;;;6307073;22;20012;-74
2024/03/14 10:40:30;;;;;;;16.77;8.32;;;14.40;97.20;;;;;;6307197;22;20070;-75
2024/03/14 10:42:57;;;;;;;11.02;7.18;;;14.50;97.00;;;;;;6254917;22;20003;-76
2024/03/14 10:45:24;;;;;;;13.52;7.45;;;14.50;96.60;;;;;;6307492;22;19999;-76
2024/03/14 10:47:51;;;;;;;28.35;16.52;;;14.70;96.40;;;;;;6307941;22;20338;-76
2024/03/14 10:50:17;;;;;;;27.30;18.00;;;14.80;96.80;;;;;;6307541;22;20002;-76
2024/03/14 10:52:49;;;;;;;36.35;23.05;;;14.90;96.90;;;;;;6307834;22;20004;-75
2024/03/14 11:09:40;;;;;;;30.70;21.38;;;15.30;97.20;;;;;;5924048;24;20460;-76
2024/03/14 11:12:55;;;;;;;33.15;20.90;;;15.40;98.40;;;;;;5843094;24;20006;-76
2024/03/14 11:18:53;;;;;;;24.75;16.23;;;15.60;96.40;;;;;;6301998;22;20023;-68
2024/03/14 11:21:33;;;;;;;24.10;15.10;;;15.70;96.30;;;;;;6306256;22;20490;-78
2024/03/14 11:24:02;;;;;;;27.90;17.95;;;15.80;97.40;;;;;;6306065;22;20023;-74
2024/03/14 11:26:34;;;;;;;25.65;16.20;;;15.80;96.30;;;;;;6306845;22;20382;-78
2024/03/14 11:29:04;;;;;;;25.23;16.50;;;15.90;95.80;;;;;;6304844;22;20000;-77
2024/03/14 11:31:44;;;;;;;22.25;13.88;;;16.00;93.80;;;;;;6306872;22;20000;-76
2024/03/14 11:34:17;;;;;;;21.27;13.27;;;16.00;94.20;;;;;;6305820;22;20009;-77
2024/03/14 11:37:02;;;;;;;22.65;14.13;;;16.10;94.40;;;;;;6306312;22;20132;-75
2024/03/14 11:39:27;;;;;;;19.25;13.77;;;16.10;93.50;;;;;;6305045;22;20437;-76
2024/03/14 11:42:11;;;;;;;21.30;13.73;;;16.10;93.10;;;;;;6306520;22;19999;-74
2024/03/14 11:44:47;;;;;;;24.63;15.23;;;16.10;93.70;;;;;;6306143;22;20000;-75
2024/03/14 11:47:34;;;;;;;21.00;13.50;;;16.20;92.70;;;;;;6307155;22;20062;-75
2024/03/14 11:50:00;;;;;;;23.60;12.18;;;16.10;91.80;;;;;;6308503;22;20003;-73
2024/03/14 11:52:28;;;;;;;22.75;13.57;;;16.20;93.00;;;;;;6308661;22;20973;-75
2024/03/14 11:54:59;;;;;;;22.90;14.43;;;16.20;91.10;;;;;;6308369;22;20045;-77
2024/03/14 11:57:25;;;;;;;22.42;14.32;;;16.30;92.80;;;;;;6306493;22;20440;-77
2024/03/14 11:59:51;;;;;;;22.60;14.10;;;16.40;93.20;;;;;;6306249;22;20469;-77
2024/03/14 12:02:17;;;;;;;18.88;13.45;;;16.50;93.00;;;;;;6306044;22;20141;-76
2024/03/14 12:04:42;;;;;;;18.40;13.40;;;16.50;92.20;;;;;;6306848;22;19995;-76
2024/03/14 12:07:08;;;;;;;20.75;12.88;;;16.60;91.90;;;;;;6307041;22;20085;-71
2024/03/14 12:09:37;;;;;;;22.50;13.82;;;16.70;91.10;;;;;;6308309;22;20065;-74
2024/03/14 12:12:03;;;;;;;21.17;13.63;;;16.80;87.90;;;;;;6307817;22;20006;-75
2024/03/14 12:14:29;;;;;;;19.88;13.43;;;16.70;86.60;;;;;;6307947;22;20007;-70
2024/03/14 12:16:54;;;;;;;21.85;13.43;;;16.70;85.00;;;;;;6307670;22;20069;-74
2024/03/14 12:19:20;;;;;;;18.92;12.50;;;16.70;86.50;;;;;;6308003;22;19999;-77
2024/03/14 12:21:52;;;;;;;16.90;10.98;;;16.80;86.20;;;;;;6307802;22;20003;-70
2024/03/14 12:24:18;;;;;;;19.23;11.35;;;16.90;84.70;;;;;;6307720;22;20003;-76
2024/03/14 12:26:44;;;;;;;15.65;10.07;;;16.90;86.40;;;;;;6307577;22;20002;-77
2024/03/14 12:29:11;;;;;;;14.73;8.73;;;17.00;87.10;;;;;;6308658;22;20607;-76
2024/03/14 12:31:37;;;;;;;15.05;9.43;;;17.10;86.20;;;;;;6308455;22;20058;-76
2024/03/14 12:34:05;;;;;;;16.42;9.68;;;17.10;85.10;;;;;;6308126;22;20026;-75
2024/03/14 12:36:35;;;;;;;14.43;9.98;;;17.20;85.00;;;;;;6308458;22;20011;-77
2024/03/14 12:39:08;;;;;;;17.87;10.03;;;17.20;87.30;;;;;;6308150;22;19999;-76
2024/03/14 12:42:28;;;;;;;14.23;8.55;;;17.30;85.70;;;;;;6307400;22;20082;-77
2024/03/14 12:45:38;;;;;;;13.82;8.20;;;17.50;83.70;;;;;;6174817;23;20032;-76
2024/03/14 12:51:42;;;;;;;11.73;7.47;;;17.50;84.10;;;;;;5980977;23;20076;-76
2024/03/14 12:55:33;;;;;;;;;;;;;;;;;;;;;
2024/03/14 13:01:29;;;;;;;14.60;8.63;;;17.50;81.10;;;;;;5844471;24;20020;-74
2024/03/14 13:04:20;;;;;;;;;;;17.50;83.10;;;;;;5897616;24;20016;-75
2024/03/14 13:06:50;;;;;;;17.83;9.23;;;17.50;84.10;;;;;;5957626;23;19902;-74
2024/03/14 13:09:21;;;;;;;15.88;8.52;;;17.60;78.60;;;;;;6095033;23;20373;-75
2024/03/14 13:12:14;;;;;;;12.45;8.43;;;17.60;78.90;;;;;;6204199;22;20008;-76
2024/03/14 13:14:41;;;;;;;13.82;8.35;;;17.60;77.30;;;;;;6295657;22;20412;-76
2024/03/14 13:17:13;;;;;;;14.25;9.55;;;17.60;77.00;;;;;;6306885;22;20011;-75
2024/03/14 13:19:40;;;;;;;16.27;8.48;;;17.60;78.00;;;;;;6306597;22;20101;-76
2024/03/14 13:22:10;;;;;;;12.77;8.48;;;17.60;79.60;;;;;;6278888;22;20397;-75
2024/03/14 13:24:36;;;;;;;14.52;8.55;;;17.70;78.80;;;;;;6278814;22;20368;-75
2024/03/14 13:27:03;;;;;;;11.05;7.32;;;17.70;78.70;;;;;;6306953;22;20302;-74
2024/03/14 13:29:29;;;;;;;11.63;5.72;;;17.70;76.00;;;;;;6306960;22;20322;-74
2024/03/14 13:31:55;;;;;;;7.03;4.57;;;17.70;74.80;;;;;;6307027;22;19999;-74
2024/03/14 13:34:24;;;;;;;8.45;4.28;;;17.70;74.40;;;;;;6306514;22;20488;-74
2024/03/14 13:36:50;;;;;;;8.73;5.43;;;17.70;72.80;;;;;;6307739;22;20489;-76
2024/03/14 13:39:16;;;;;;;9.70;5.50;;;17.80;73.20;;;;;;6307132;22;20003;-75
2024/03/14 13:41:45;;;;;;;8.27;5.57;;;17.80;74.60;;;;;;6306459;22;20061;-75
2024/03/14 13:44:16;;;;;;;13.20;6.53;;;17.80;73.40;;;;;;6306727;22;20371;-73
2024/03/14 13:46:50;;;;;;;12.20;6.80;;;17.80;74.30;;;;;;6304910;22;20007;-75
2024/03/14 13:49:18;;;;;;;10.88;7.93;;;17.70;74.60;;;;;;6280275;22;19999;-75
2024/03/14 13:51:44;;;;;;;13.82;7.93;;;17.70;77.50;;;;;;6306828;22;20006;-75
2024/03/14 13:54:17;;;;;;;14.05;7.20;;;17.70;81.00;;;;;;6308056;22;20349;-75
2024/03/14 13:56:47;;;;;;;12.32;7.10;;;17.80;79.20;;;;;;6307415;22;20011;-76
2024/03/14 13:59:16;;;;;;;12.68;7.10;;;17.80;77.60;;;;;;6307391;22;20031;-74
2024/03/14 14:01:45;;;;;;;14.35;6.63;;;17.80;78.90;;;;;;6307253;22;20057;-75
2024/03/14 14:04:11;;;;;;;14.52;6.60;;;17.80;75.80;;;;;;6307638;22;20421;-73
2024/03/14 14:06:38;;;;;;;11.30;6.43;;;17.80;73.40;;;;;;6307476;22;19995;-74
2024/03/14 14:09:07;;;;;;;13.02;6.80;;;17.70;74.70;;;;;;6307258;22;20238;-74
2024/03/14 14:11:36;;;;;;;13.02;6.50;;;17.70;73.90;;;;;;6307295;22;19995;-75
2024/03/14 14:14:02;;;;;;;9.07;6.30;;;17.70;74.30;;;;;;6307863;22;20000;-75
2024/03/14 14:16:28;;;;;;;9.50;6.57;;;17.70;76.70;;;;;;6279770;22;20018;-75
2024/03/14 14:18:56;;;;;;;13.35;8.85;;;17.70;76.60;;;;;;6307664;22;20000;-75
2024/03/14 14:21:37;;;;;;;19.40;9.15;;;17.70;78.70;;;;;;6307579;22;20337;-74
2024/03/14 14:28:03;;;;;;;11.93;8.18;;;17.70;78.00;;;;;;6307845;22;20064;-75
2024/03/14 14:31:08;;;;;;;11.73;8.38;;;17.70;79.60;;;;;;6168831;23;20187;-75
2024/03/14 14:41:31;;;;;;;13.48;9.07;;;17.70;78.50;;;;;;5947755;24;20031;-76
2024/03/14 14:47:51;;;;;;;16.73;12.40;;;17.70;81.30;;;;;;5909233;23;20521;-72
2024/03/14 14:50:17;;;;;;;14.10;9.20;;;17.70;80.70;;;;;;6037300;23;20007;-74
2024/03/14 14:52:43;;;;;;;13.70;8.77;;;17.60;77.50;;;;;;6137466;23;20044;-74
2024/03/14 14:55:13;;;;;;;14.27;9.95;;;17.60;78.40;;;;;;6279609;22;20383;-75
2024/03/14 14:57:43;;;;;;;14.38;8.88;;;17.60;94.70;;;;;;6302993;22;20488;-75
2024/03/14 15:00:17;;;;;;;22.58;9.75;;;17.60;82.90;;;;;;6278457;22;20329;-76
2024/03/14 15:02:45;;;;;;;11.35;8.13;;;17.50;79.10;;;;;;6306557;22;20007;-72
2024/03/14 15:05:11;;;;;;;16.13;8.88;;;17.50;77.90;;;;;;6306369;22;19999;-72